Time;durP1;ratioP1;P1;durP2;ratioP2;P2;SDS_P1;SDS_P2;PMS_P1;PMS_P2;Temp;Humidity;BMP_temperature;BMP_pressure;BME280_temperature;BME280_humidity;BME280_pressure;Samples;Min_cycle;Max_cycle;Signal;HPM_P1;HPM_P2
2022/11/30 00:02:18;;;;;;;;;;;5.40;99.90;;;;;;5104075;28;19920;-69
2022/11/30 00:04:45;;;;;;;;;;;5.50;99.90;;;;;;5104097;28;20193;-70
2022/11/30 00:07:11;;;;;;;;;;;5.40;99.90;;;;;;5123908;28;19991;-70
2022/11/30 00:09:38;;;;;;;;;;;5.40;99.90;;;;;;5120699;28;19983;-70
2022/11/30 00:12:05;;;;;;;;;;;5.40;99.90;;;;;;5103472;28;19927;-70
2022/11/30 00:14:33;;;;;;;;;;;5.40;99.90;;;;;;5103619;28;20242;-70
2022/11/30 00:17:00;;;;;;;;;;;5.40;99.90;;;;;;5103550;28;20119;-70
2022/11/30 00:19:26;;;;;;;;;;;5.40;99.90;;;;;;5103857;28;19983;-69
2022/11/30 00:21:53;;;;;;;;;;;5.40;99.90;;;;;;5103764;28;19920;-70
2022/11/30 00:24:19;;;;;;;;;;;5.30;99.90;;;;;;5103615;28;20183;-69
2022/11/30 00:26:46;;;;;;;;;;;5.30;99.90;;;;;;5103906;28;19983;-70
2022/11/30 00:29:13;;;;;;;;;;;5.40;99.90;;;;;;5104293;28;19959;-70
2022/11/30 00:31:41;;;;;;;;;;;5.40;99.90;;;;;;5103821;28;19955;-69
2022/11/30 00:34:07;;;;;;;;;;;5.40;99.90;;;;;;5103743;28;19955;-70
2022/11/30 00:36:34;;;;;;;;;;;5.50;99.90;;;;;;5103112;28;20252;-70
2022/11/30 00:39:00;;;;;;;;;;;5.40;99.90;;;;;;5107279;28;19955;-69
2022/11/30 00:41:27;;;;;;;;;;;5.40;99.90;;;;;;5107480;28;19955;-70
2022/11/30 00:43:54;;;;;;;;;;;5.40;99.90;;;;;;5107569;28;19993;-69
2022/11/30 00:46:20;;;;;;;;;;;5.40;99.90;;;;;;5107061;28;20258;-70
2022/11/30 00:48:48;;;;;;;;;;;5.40;99.90;;;;;;5107692;28;19985;-69
2022/11/30 00:51:15;;;;;;;;;;;5.50;99.90;;;;;;5107471;28;19990;-70
2022/11/30 00:53:42;;;;;;;;;;;5.50;99.90;;;;;;5107431;28;19920;-70
2022/11/30 00:56:09;;;;;;;;;;;5.40;99.90;;;;;;5107214;28;19924;-70
2022/11/30 00:58:35;;;;;;;;;;;5.40;99.90;;;;;;5107352;28;19956;-70
2022/11/30 01:01:02;;;;;;;;;;;5.40;99.90;;;;;;5107149;28;19956;-70
2022/11/30 01:03:29;;;;;;;;;;;5.40;99.90;;;;;;5107393;28;19999;-69
2022/11/30 01:06:00;;;;;;;;;;;5.40;99.90;;;;;;5106978;28;19955;-69
2022/11/30 01:08:27;;;;;;;;;;;5.50;99.90;;;;;;5107290;28;19946;-69
2022/11/30 01:10:56;;;;;;;;;;;5.50;99.90;;;;;;5107324;28;20183;-69
2022/11/30 01:13:23;;;;;;;;;;;5.50;99.90;;;;;;5106945;28;19951;-70
2022/11/30 01:15:50;;;;;;;;;;;5.40;99.90;;;;;;5106828;28;20143;-69
2022/11/30 01:18:16;;;;;;;;;;;5.40;99.90;;;;;;5107129;28;19987;-70
2022/11/30 01:20:43;;;;;;;;;;;5.40;99.90;;;;;;5106912;28;20286;-70
2022/11/30 01:23:11;;;;;;;;;;;5.40;99.90;;;;;;5106748;28;19975;-70
2022/11/30 01:25:38;;;;;;;;;;;5.40;99.90;;;;;;5106856;28;19920;-70
2022/11/30 01:28:05;;;;;;;;;;;5.40;99.90;;;;;;5106653;28;19951;-70
2022/11/30 01:30:31;;;;;;;;;;;5.30;99.90;;;;;;5106975;28;19979;-70
2022/11/30 01:33:01;;;;;;;;;;;5.30;99.90;;;;;;5106638;28;19983;-70
2022/11/30 01:35:28;;;;;;;;;;;5.30;99.90;;;;;;5106764;28;19952;-70
2022/11/30 01:37:54;;;;;;;;;;;5.30;99.90;;;;;;5106394;28;19920;-69
2022/11/30 01:40:22;;;;;;;;;;;5.30;99.90;;;;;;5106785;28;19983;-70
2022/11/30 01:42:49;;;;;;;;;;;5.30;99.90;;;;;;5106568;28;19955;-69
2022/11/30 01:45:16;;;;;;;;;;;5.30;99.90;;;;;;5106537;28;19951;-70
2022/11/30 01:47:45;;;;;;;;;;;5.30;99.90;;;;;;5105572;28;20192;-70
2022/11/30 01:50:15;;;;;;;;;;;5.30;99.90;;;;;;5106502;28;19970;-70
2022/11/30 01:52:43;;;;;;;;;;;5.30;99.90;;;;;;5106368;28;19979;-70
2022/11/30 01:55:14;;;;;;;;;;;5.30;99.90;;;;;;5106300;28;19984;-70
2022/11/30 01:57:45;;;;;;;;;;;5.40;99.90;;;;;;5105783;28;20207;-70
2022/11/30 02:00:13;;;;;;;;;;;5.40;99.90;;;;;;5106509;28;19951;-70
2022/11/30 02:02:43;;;;;;;;;;;5.30;99.90;;;;;;5106236;28;19962;-70
2022/11/30 02:05:11;;;;;;;;;;;5.30;99.90;;;;;;5106248;28;19920;-69
2022/11/30 02:07:37;;;;;;;;;;;5.30;99.90;;;;;;5106025;28;19927;-70
2022/11/30 02:10:04;;;;;;;;;;;5.30;99.90;;;;;;5106259;28;19956;-69
2022/11/30 02:12:36;;;;;;;;;;;5.30;99.90;;;;;;5105400;28;19990;-69
2022/11/30 02:15:07;;;;;;;;;;;5.30;99.90;;;;;;5105981;28;19974;-70
2022/11/30 02:17:36;;;;;;;;;;;5.30;99.90;;;;;;5105679;28;19927;-69
2022/11/30 02:20:17;;;;;;;;;;;5.30;99.90;;;;;;5105887;28;19958;-70
2022/11/30 02:22:57;;;;;;;;;;;5.30;99.90;;;;;;5088722;28;19988;-70
2022/11/30 02:25:26;;;;;;;;;;;5.30;99.90;;;;;;5105862;28;19987;-69
2022/11/30 02:28:07;;;;;;;;;;;5.30;99.90;;;;;;5105448;28;20203;-69
2022/11/30 02:30:35;;;;;;;;;;;5.30;99.90;;;;;;5105589;28;20165;-69
2022/11/30 02:33:05;;;;;;;;;;;5.30;99.90;;;;;;5105151;28;20178;-69
2022/11/30 02:35:35;;;;;;;;;;;5.30;99.90;;;;;;5104709;28;19955;-70
2022/11/30 02:38:03;;;;;;;;;;;5.30;99.90;;;;;;5105514;28;20181;-69
2022/11/30 02:40:30;;;;;;;;;;;5.40;99.90;;;;;;5105592;28;19974;-70
2022/11/30 02:42:57;;;;;;;;;;;5.40;99.90;;;;;;5105479;28;20002;-70
2022/11/30 02:45:28;;;;;;;;;;;5.40;99.90;;;;;;5105069;28;20251;-69
2022/11/30 02:47:58;;;;;;;;;;;5.40;99.90;;;;;;5104931;28;19959;-70
2022/11/30 02:50:28;;;;;;;;;;;5.40;99.90;;;;;;5105468;28;19952;-70
2022/11/30 02:52:55;;;;;;;;;;;5.30;99.90;;;;;;5105049;28;20227;-70
2022/11/30 02:55:22;;;;;;;;;;;5.40;99.90;;;;;;5104817;28;20223;-70
2022/11/30 02:57:48;;;;;;;;;;;5.30;99.90;;;;;;5105052;28;20206;-70
2022/11/30 03:00:15;;;;;;;;;;;5.30;99.90;;;;;;5103850;28;19955;-70
2022/11/30 03:02:42;;;;;;;;;;;5.20;99.90;;;;;;5104601;28;19991;-70
2022/11/30 03:05:10;;;;;;;;;;;5.20;99.90;;;;;;5105093;28;19958;-70
2022/11/30 03:07:37;;;;;;;;;;;5.20;99.90;;;;;;5104898;28;19958;-71
2022/11/30 03:10:04;;;;;;;;;;;5.20;99.90;;;;;;5104604;28;19952;-70
2022/11/30 03:12:31;;;;;;;;;;;5.20;99.90;;;;;;5104548;28;20202;-70
2022/11/30 03:14:57;;;;;;;;;;;5.20;99.90;;;;;;5104458;28;19962;-69
2022/11/30 03:17:24;;;;;;;;;;;5.20;99.90;;;;;;5104494;28;19987;-71
2022/11/30 03:19:51;;;;;;;;;;;5.20;99.90;;;;;;5104709;28;19920;-69
2022/11/30 03:22:19;;;;;;;;;;;5.20;99.90;;;;;;5104482;28;20178;-70
2022/11/30 03:24:45;;;;;;;;;;;5.20;99.90;;;;;;5104566;28;20180;-70
2022/11/30 03:27:12;;;;;;;;;;;5.20;99.90;;;;;;5104014;28;19996;-69
2022/11/30 03:29:39;;;;;;;;;;;5.20;99.90;;;;;;5104608;28;19963;-70
2022/11/30 03:32:05;;;;;;;;;;;5.20;99.90;;;;;;5104394;28;19921;-70
2022/11/30 03:34:35;;;;;;;;;;;5.20;99.90;;;;;;5103835;28;20147;-70
2022/11/30 03:37:02;;;;;;;;;;;5.20;99.90;;;;;;5103815;28;19962;-70
2022/11/30 03:39:30;;;;;;;;;;;5.30;99.90;;;;;;5104426;28;19952;-70
2022/11/30 03:41:56;;;;;;;;;;;5.30;99.90;;;;;;5104120;28;20279;-70
2022/11/30 03:44:23;;;;;;;;;;;5.30;99.90;;;;;;5103961;28;20261;-70
2022/11/30 03:46:50;;;;;;;;;;;5.30;99.90;;;;;;5104043;28;19960;-70
2022/11/30 03:49:16;;;;;;;;;;;5.30;99.90;;;;;;5104410;28;19963;-69
2022/11/30 03:51:43;;;;;;;;;;;5.30;99.90;;;;;;5104262;28;19955;-71
2022/11/30 03:54:10;;;;;;;;;;;5.30;99.90;;;;;;5104060;28;20147;-70
2022/11/30 03:56:38;;;;;;;;;;;5.30;99.90;;;;;;5103943;28;19955;-70
2022/11/30 03:59:05;;;;;;;;;;;5.30;99.90;;;;;;5103392;28;20223;-69
2022/11/30 04:01:32;;;;;;;;;;;5.30;99.90;;;;;;5104081;28;19956;-69
2022/11/30 04:03:58;;;;;;;;;;;5.30;99.90;;;;;;5103678;28;19983;-70
2022/11/30 04:06:25;;;;;;;;;;;5.30;99.90;;;;;;5103363;28;20246;-69
2022/11/30 04:08:52;;;;;;;;;;;5.30;99.90;;;;;;5103680;28;20243;-69
2022/11/30 04:11:18;;;;;;;;;;;5.20;99.90;;;;;;5103630;28;19955;-69
2022/11/30 04:13:46;;;;;;;;;;;5.20;99.90;;;;;;5110975;28;19991;-70
2022/11/30 04:16:13;;;;;;;;;;;5.20;99.90;;;;;;5083101;28;19928;-70
2022/11/30 04:18:40;;;;;;;;;;;5.20;99.90;;;;;;5083529;28;19980;-69
2022/11/30 04:21:07;;;;;;;;;;;5.30;99.90;;;;;;5083553;28;20162;-69
2022/11/30 04:23:34;;;;;;;;;;;5.20;99.90;;;;;;5083545;28;19952;-70
2022/11/30 04:26:02;;;;;;;;;;;5.30;99.90;;;;;;5083113;28;19921;-70
2022/11/30 04:28:29;;;;;;;;;;;5.20;99.90;;;;;;5083512;28;19983;-70
2022/11/30 04:30:59;;;;;;;;;;;5.20;99.90;;;;;;5083592;28;19963;-70
2022/11/30 04:33:26;;;;;;;;;;;5.20;99.90;;;;;;5083703;28;19943;-69
2022/11/30 04:35:54;;;;;;;;;;;5.20;99.90;;;;;;5082987;28;19934;-70
2022/11/30 04:38:21;;;;;;;;;;;5.20;99.90;;;;;;5083141;28;19983;-70
2022/11/30 04:40:47;;;;;;;;;;;5.20;99.90;;;;;;5083449;28;19956;-69
2022/11/30 04:43:14;;;;;;;;;;;5.20;99.90;;;;;;5083338;28;19951;-70
2022/11/30 04:45:41;;;;;;;;;;;5.30;99.90;;;;;;5083338;28;20157;-69
2022/11/30 04:48:09;;;;;;;;;;;5.20;99.90;;;;;;5083334;28;19956;-70
2022/11/30 04:50:35;;;;;;;;;;;5.20;99.90;;;;;;5083466;28;19987;-70
2022/11/30 04:53:02;;;;;;;;;;;5.20;99.90;;;;;;5100109;28;19989;-69
2022/11/30 04:55:29;;;;;;;;;;;5.20;99.90;;;;;;5103666;28;19999;-69
2022/11/30 04:57:56;;;;;;;;;;;5.20;99.90;;;;;;5103013;28;19952;-69
2022/11/30 05:00:22;;;;;;;;;;;5.20;99.90;;;;;;5103563;28;19978;-70
2022/11/30 05:02:49;;;;;;;;;;;5.20;99.90;;;;;;5103524;28;19982;-69
2022/11/30 05:05:17;;;;;;;;;;;5.20;99.90;;;;;;5103502;28;20162;-70
2022/11/30 05:07:48;;;;;;;;;;;5.10;99.90;;;;;;5082420;28;19966;-70
2022/11/30 05:10:15;;;;;;;;;;;5.20;99.90;;;;;;5083379;28;19952;-70
2022/11/30 05:12:42;;;;;;;;;;;5.20;99.90;;;;;;5086426;28;19959;-70
2022/11/30 05:15:09;;;;;;;;;;;5.20;99.90;;;;;;5103607;28;20139;-70
2022/11/30 05:17:36;;;;;;;;;;;5.20;99.90;;;;;;5103203;28;19988;-70
2022/11/30 05:20:03;;;;;;;;;;;5.20;99.90;;;;;;5103574;28;19955;-70
2022/11/30 05:22:30;;;;;;;;;;;5.20;99.90;;;;;;5083023;28;19920;-70
2022/11/30 05:24:57;;;;;;;;;;;5.20;99.90;;;;;;5090154;28;19963;-69
2022/11/30 05:27:24;;;;;;;;;;;5.10;99.90;;;;;;5106680;28;19991;-70
2022/11/30 05:29:50;;;;;;;;;;;5.10;99.90;;;;;;5106406;28;19947;-69
2022/11/30 05:32:17;;;;;;;;;;;5.10;99.90;;;;;;5106614;28;20275;-70
2022/11/30 05:34:44;;;;;;;;;;;5.10;99.90;;;;;;5106556;28;19987;-69
2022/11/30 05:37:10;;;;;;;;;;;5.20;99.90;;;;;;5106173;28;20148;-68
2022/11/30 05:39:38;;;;;;;;;;;5.20;99.90;;;;;;5106454;28;20203;-69
2022/11/30 05:42:05;;;;;;;;;;;5.20;99.90;;;;;;5094244;28;20265;-69
2022/11/30 05:44:31;;;;;;;;;;;5.10;99.90;;;;;;5086022;28;20286;-69
2022/11/30 05:46:58;;;;;;;;;;;5.10;99.90;;;;;;5092881;28;19928;-69
2022/11/30 05:49:25;;;;;;;;;;;5.10;99.90;;;;;;5122620;28;20095;-68
2022/11/30 05:51:51;;;;;;;;;;;5.10;99.90;;;;;;5106603;28;19920;-68
2022/11/30 05:54:18;;;;;;;;;;;5.10;99.90;;;;;;5106051;28;19987;-68
2022/11/30 05:56:46;;;;;;;;;;;5.20;99.90;;;;;;5105937;28;20183;-69
2022/11/30 05:59:13;;;;;;;;;;;5.10;99.90;;;;;;5105938;28;19979;-68
2022/11/30 06:01:39;;;;;;;;;;;5.20;99.90;;;;;;5106111;28;20222;-69
2022/11/30 06:04:06;;;;;;;;;;;5.20;99.90;;;;;;5105937;28;19940;-68
2022/11/30 06:06:35;;;;;;;;;;;5.20;99.90;;;;;;5105788;28;19962;-68
2022/11/30 06:09:01;;;;;;;;;;;5.10;99.90;;;;;;5105865;28;19951;-68
2022/11/30 06:11:28;;;;;;;;;;;5.10;99.90;;;;;;5105214;28;19924;-68
2022/11/30 06:13:56;;;;;;;;;;;5.10;99.90;;;;;;5105631;28;19947;-69
2022/11/30 06:16:23;;;;;;;;;;;5.10;99.90;;;;;;5105685;28;19954;-69
2022/11/30 06:18:49;;;;;;;;;;;5.10;99.90;;;;;;5106445;28;19952;-69
2022/11/30 06:21:16;;;;;;;;;;;5.10;99.90;;;;;;5105888;28;19920;-71
2022/11/30 06:23:43;;;;;;;;;;;5.10;99.90;;;;;;5085895;28;19962;-68
2022/11/30 06:26:10;;;;;;;;;;;5.10;99.90;;;;;;5085626;28;19958;-68
2022/11/30 06:28:37;;;;;;;;;;;5.10;99.90;;;;;;5085669;28;19955;-71
2022/11/30 06:31:06;;;;;;;;;;;5.10;99.90;;;;;;5085129;28;19988;-70
2022/11/30 06:33:33;;;;;;;;;;;5.10;99.90;;;;;;5085216;28;19999;-70
2022/11/30 06:36:00;;;;;;;;;;;5.10;99.90;;;;;;5085129;28;19966;-70
2022/11/30 06:38:27;;;;;;;;;;;5.00;99.90;;;;;;5085625;28;19979;-70
2022/11/30 06:40:53;;;;;;;;;;;5.00;99.90;;;;;;5085613;28;19956;-70
2022/11/30 06:43:20;;;;;;;;;;;5.00;99.90;;;;;;5085330;28;19960;-69
2022/11/30 06:45:47;;;;;;;;;;;5.00;99.90;;;;;;5085264;28;19979;-70
2022/11/30 06:48:15;;;;;;;;;;;4.90;99.90;;;;;;5085276;28;19983;-69
2022/11/30 06:50:42;;;;;;;;;;;4.90;99.90;;;;;;5084958;28;19948;-70
2022/11/30 06:53:08;;;;;;;;;;;4.90;99.90;;;;;;5084989;28;19928;-69
2022/11/30 06:55:37;;;;;;;;;;;4.80;99.90;;;;;;5085060;28;19959;-70
2022/11/30 06:58:06;;;;;;;;;;;4.80;99.90;;;;;;5089059;28;19999;-70
2022/11/30 07:00:33;;;;;;;;;;;4.80;99.90;;;;;;5105503;28;19951;-69
2022/11/30 07:03:00;;;;;;;;;;;4.80;99.90;;;;;;5105269;28;19986;-70
2022/11/30 07:05:28;;;;;;;;;;;4.80;99.90;;;;;;5105293;28;19951;-70
2022/11/30 07:07:54;;;;;;;;;;;4.80;99.90;;;;;;5104712;28;19951;-69
2022/11/30 07:10:22;;;;;;;;;;;4.90;99.90;;;;;;5105044;28;19948;-70
2022/11/30 07:12:49;;;;;;;;;;;4.90;99.90;;;;;;5104722;28;19927;-69
2022/11/30 07:15:15;;;;;;;;;;;4.80;99.90;;;;;;5105166;28;19920;-70
2022/11/30 07:17:42;;;;;;;;;;;4.80;99.90;;;;;;5104897;28;19951;-69
2022/11/30 07:20:09;;;;;;;;;;;4.80;99.90;;;;;;5105003;28;19983;-69
2022/11/30 07:22:37;;;;;;;;;;;4.70;99.90;;;;;;5104758;28;19955;-70
2022/11/30 07:27:48;;;;;;;;;;;4.80;99.90;;;;;;5104376;28;19923;-69
2022/11/30 07:30:15;;;;;;;;;;;4.80;99.90;;;;;;5104505;28;19919;-70
2022/11/30 07:32:41;;;;;;;;;;;4.80;99.90;;;;;;5104644;28;20033;-70
2022/11/30 07:35:08;;;;;;;;;;;4.80;99.90;;;;;;5104508;28;19975;-70
2022/11/30 07:37:36;;;;;;;;;;;4.70;99.90;;;;;;5104477;28;20226;-70
2022/11/30 07:40:03;;;;;;;;;;;4.80;99.90;;;;;;5104364;28;19960;-70
2022/11/30 07:42:30;;;;;;;;;;;4.80;99.90;;;;;;5104412;28;19935;-69
2022/11/30 07:44:56;;;;;;;;;;;4.80;99.90;;;;;;5104628;28;20138;-69
2022/11/30 07:47:23;;;;;;;;;;;4.80;99.90;;;;;;5103841;28;19963;-69
2022/11/30 07:49:50;;;;;;;;;;;4.80;99.90;;;;;;5104430;28;19983;-69
2022/11/30 07:52:16;;;;;;;;;;;4.80;99.90;;;;;;5104314;28;19963;-70
2022/11/30 07:54:50;;;;;;;;;;;4.80;99.90;;;;;;5103756;28;19960;-70
2022/11/30 07:57:17;;;;;;;;;;;4.80;99.90;;;;;;5104139;28;20104;-70
2022/11/30 07:59:43;;;;;;;;;;;4.80;99.90;;;;;;5104101;28;20258;-70
2022/11/30 08:02:10;;;;;;;;;;;4.80;99.90;;;;;;5104018;28;19951;-70
2022/11/30 08:04:37;;;;;;;;;;;4.80;99.90;;;;;;5104322;28;19959;-70
2022/11/30 08:07:04;;;;;;;;;;;4.80;99.90;;;;;;5104116;28;19983;-69
2022/11/30 08:09:30;;;;;;;;;;;4.80;99.90;;;;;;5104868;28;19961;-69
2022/11/30 08:11:58;;;;;;;;;;;4.80;99.90;;;;;;5105471;28;19921;-70
2022/11/30 08:14:25;;;;;;;;;;;4.80;99.90;;;;;;5104381;28;19920;-70
2022/11/30 08:16:52;;;;;;;;;;;4.90;99.90;;;;;;5103906;28;19955;-69
2022/11/30 08:19:18;;;;;;;;;;;4.90;99.90;;;;;;5103742;28;19926;-69
2022/11/30 08:21:45;;;;;;;;;;;4.90;99.90;;;;;;5104073;28;19947;-70
2022/11/30 08:24:12;;;;;;;;;;;4.90;99.90;;;;;;5104064;28;20123;-70
2022/11/30 08:26:39;;;;;;;;;;;4.80;99.90;;;;;;5103744;28;19927;-70
2022/11/30 08:29:07;;;;;;;;;;;4.80;99.90;;;;;;5104065;28;20192;-70
2022/11/30 08:31:34;;;;;;;;;;;4.80;99.90;;;;;;5103678;28;20262;-70
2022/11/30 08:34:02;;;;;;;;;;;4.80;99.90;;;;;;5103899;28;19971;-69
2022/11/30 08:36:29;;;;;;;;;;;4.90;99.90;;;;;;5103735;28;20171;-69
2022/11/30 08:38:57;;;;;;;;;;;4.90;99.90;;;;;;5103964;28;19996;-70
2022/11/30 08:41:23;;;;;;;;;;;4.90;99.90;;;;;;5104069;28;20115;-70
2022/11/30 08:43:50;;;;;;;;;;;4.90;99.90;;;;;;5103858;28;19983;-69
2022/11/30 08:46:19;;;;;;;;;;;4.90;99.90;;;;;;5103732;28;20222;-70
2022/11/30 08:48:46;;;;;;;;;;;4.90;99.90;;;;;;5103892;28;19955;-70
2022/11/30 08:51:14;;;;;;;;;;;4.90;99.90;;;;;;5103637;28;19955;-70
2022/11/30 08:53:41;;;;;;;;;;;4.90;99.90;;;;;;5103550;28;19927;-70
2022/11/30 08:56:17;;;;;;;;;;;4.90;99.90;;;;;;5102781;28;19928;-69
2022/11/30 08:58:44;;;;;;;;;;;4.90;99.90;;;;;;5105454;28;19955;-69
2022/11/30 09:01:12;;;;;;;;;;;5.00;99.90;;;;;;5107368;28;20250;-69
2022/11/30 09:03:40;;;;;;;;;;;5.00;99.90;;;;;;5107464;28;19965;-70
2022/11/30 09:06:08;;;;;;;;;;;5.00;99.90;;;;;;5107357;28;19962;-70
2022/11/30 09:08:35;;;;;;;;;;;5.00;99.90;;;;;;5107376;28;19956;-70
2022/11/30 09:11:08;;;;;;;;;;;5.00;99.90;;;;;;5107570;28;19963;-70
2022/11/30 09:13:35;;;;;;;;;;;5.10;99.90;;;;;;5107170;28;20234;-70
2022/11/30 09:16:01;;;;;;;;;;;5.10;99.90;;;;;;5107085;28;19951;-70
2022/11/30 09:18:28;;;;;;;;;;;5.20;99.90;;;;;;5106994;28;19959;-69
2022/11/30 09:20:59;;;;;;;;;;;5.20;99.90;;;;;;5107028;28;20207;-69
2022/11/30 09:23:26;;;;;;;;;;;5.20;99.90;;;;;;5107169;28;19927;-70
2022/11/30 09:25:55;;;;;;;;;;;5.20;99.90;;;;;;5106557;28;19946;-71
2022/11/30 09:28:21;;;;;;;;;;;5.20;99.90;;;;;;5107010;28;19947;-70
2022/11/30 09:30:48;;;;;;;;;;;5.10;99.90;;;;;;5106735;28;20156;-69
2022/11/30 09:33:15;;;;;;;;;;;5.10;99.90;;;;;;5106625;28;19983;-69
2022/11/30 09:35:41;;;;;;;;;;;5.10;99.90;;;;;;5106812;28;19956;-70
2022/11/30 09:38:09;;;;;;;;;;;5.00;99.90;;;;;;5106815;28;19992;-69
2022/11/30 09:40:37;;;;;;;;;;;5.10;99.90;;;;;;5106935;28;20049;-69
2022/11/30 09:43:06;;;;;;;;;;;5.00;99.90;;;;;;5106869;28;20196;-69
2022/11/30 09:45:34;;;;;;;;;;;5.10;99.90;;;;;;5106814;28;19920;-69
2022/11/30 09:48:18;;;;;;;;;;;5.00;99.90;;;;;;5106511;28;19955;-70
2022/11/30 09:50:46;;;;;;;;;;;5.00;99.90;;;;;;5106786;28;19927;-70
2022/11/30 09:53:16;;;;;;;;;;;5.10;99.90;;;;;;5106464;28;20097;-70
2022/11/30 09:55:43;;;;;;;;;;;5.00;99.90;;;;;;5106312;28;19920;-69
2022/11/30 09:58:15;;;;;;;;;;;5.10;99.90;;;;;;5106534;28;19983;-69
2022/11/30 10:00:42;;;;;;;;;;;5.10;99.90;;;;;;5106586;28;19920;-70
2022/11/30 10:03:12;;;;;;;;;;;5.10;99.90;;;;;;5106063;28;20250;-69
2022/11/30 10:05:43;;;;;;;;;;;5.00;99.90;;;;;;5106252;28;20111;-69
2022/11/30 10:08:17;;;;;;;;;;;5.00;99.90;;;;;;5106147;28;19920;-69
2022/11/30 10:10:47;;;;;;;;;;;5.00;99.90;;;;;;5105915;28;19924;-69
2022/11/30 10:13:22;;;;;;;;;;;5.00;99.90;;;;;;5105811;28;19979;-69
2022/11/30 10:15:54;;;;;;;;;;;5.00;99.90;;;;;;5105967;28;19951;-69
2022/11/30 10:18:25;;;;;;;;;;;5.00;99.90;;;;;;5106285;28;19927;-70
2022/11/30 10:20:58;;;;;;;;;;;4.90;99.90;;;;;;5106108;28;19920;-70
2022/11/30 10:23:35;;;;;;;;;;;4.90;99.90;;;;;;5106080;28;19952;-70
2022/11/30 10:26:06;;;;;;;;;;;4.90;99.90;;;;;;5102163;28;20015;-69
2022/11/30 10:28:39;;;;;;;;;;;4.80;99.90;;;;;;5099613;28;19959;-69
2022/11/30 10:31:10;;;;;;;;;;;4.80;99.90;;;;;;5085568;28;19987;-69
2022/11/30 10:33:40;;;;;;;;;;;4.80;99.90;;;;;;5096859;28;19984;-69
2022/11/30 10:36:11;;;;;;;;;;;4.80;99.90;;;;;;5105648;28;20199;-70
2022/11/30 10:38:42;;;;;;;;;;;4.80;99.90;;;;;;5105776;28;19920;-69
2022/11/30 10:41:11;;;;;;;;;;;4.80;99.90;;;;;;5105663;28;19948;-69
2022/11/30 10:43:42;;;;;;;;;;;4.70;99.90;;;;;;5105601;28;19955;-69
2022/11/30 10:46:14;;;;;;;;;;;4.70;99.90;;;;;;5105193;28;19987;-69
2022/11/30 10:48:43;;;;;;;;;;;4.60;99.90;;;;;;5105597;28;19987;-69
2022/11/30 10:51:10;;;;;;;;;;;4.60;99.90;;;;;;5105543;28;20166;-70
2022/11/30 10:53:37;;;;;;;;;;;4.50;99.90;;;;;;5105446;28;19951;-69
2022/11/30 10:56:09;;;;;;;;;;;4.50;99.90;;;;;;5104273;28;19951;-70
2022/11/30 10:58:38;;;;;;;;;;;4.50;99.90;;;;;;5104998;28;19947;-70
2022/11/30 11:01:05;;;;;;;;;;;4.50;99.90;;;;;;5104925;28;19955;-70
2022/11/30 11:03:32;;;;;;;;;;;4.60;99.90;;;;;;5105055;28;19951;-69
2022/11/30 11:06:06;;;;;;;;;;;4.60;99.90;;;;;;5104717;28;19955;-70
2022/11/30 11:08:34;;;;;;;;;;;4.60;99.90;;;;;;5104543;28;20323;-70
2022/11/30 11:11:00;;;;;;;;;;;4.60;99.90;;;;;;5104974;28;20212;-70
2022/11/30 11:13:39;;;;;;;;;;;4.60;99.90;;;;;;5104784;28;19952;-69
2022/11/30 11:16:07;;;;;;;;;;;4.60;99.90;;;;;;5104946;28;19958;-69
2022/11/30 11:18:34;;;;;;;;;;;4.60;99.90;;;;;;5105026;28;19920;-69
2022/11/30 11:21:03;;;;;;;;;;;4.60;99.90;;;;;;5103766;28;19952;-69
2022/11/30 11:23:30;;;;;;;;;;;4.60;99.90;;;;;;5104907;28;19920;-69
2022/11/30 11:25:57;;;;;;;;;;;4.60;99.90;;;;;;5104267;28;20235;-70
2022/11/30 11:28:24;;;;;;;;;;;4.60;99.90;;;;;;5104472;28;19991;-69
2022/11/30 11:30:54;;;;;;;;;;;4.60;99.90;;;;;;5104493;28;19920;-70
2022/11/30 11:33:23;;;;;;;;;;;4.60;99.90;;;;;;5104527;28;19920;-70
2022/11/30 11:35:51;;;;;;;;;;;4.60;99.90;;;;;;5104300;28;19947;-69
2022/11/30 11:38:18;;;;;;;;;;;4.60;99.90;;;;;;5104127;28;20255;-70
2022/11/30 11:40:57;;;;;;;;;;;4.60;99.90;;;;;;5104029;28;19951;-69
2022/11/30 11:43:25;;;;;;;;;;;4.60;99.90;;;;;;5104539;28;20005;-69
2022/11/30 11:45:54;;;;;;;;;;;4.60;99.90;;;;;;5104448;28;19969;-70
2022/11/30 11:48:27;;;;;;;;;;;4.60;99.90;;;;;;5104099;28;19947;-69
2022/11/30 11:50:57;;;;;;;;;;;4.60;99.90;;;;;;5104465;28;19927;-70
2022/11/30 11:53:35;;;;;;;;;;;4.60;99.90;;;;;;5104350;28;19984;-69
2022/11/30 11:56:08;;;;;;;;;;;4.60;99.90;;;;;;5103475;28;20183;-69
2022/11/30 11:58:37;;;;;;;;;;;4.70;99.90;;;;;;5104306;28;19974;-69
2022/11/30 12:01:08;;;;;;;;;;;4.70;99.90;;;;;;5103897;28;20093;-69
2022/11/30 12:03:38;;;;;;;;;;;4.60;99.90;;;;;;5104356;28;19951;-69
2022/11/30 12:06:08;;;;;;;;;;;4.70;99.90;;;;;;5103994;28;19920;-70
2022/11/30 12:08:36;;;;;;;;;;;4.60;99.90;;;;;;5104197;28;19952;-69
2022/11/30 12:11:08;;;;;;;;;;;4.60;99.90;;;;;;5104237;28;19927;-69
2022/11/30 12:13:38;;;;;;;;;;;4.50;99.90;;;;;;5103841;28;19948;-69
2022/11/30 12:16:09;;;;;;;;;;;4.50;99.90;;;;;;5103376;28;19951;-69
2022/11/30 12:18:42;;;;;;;;;;;4.50;99.90;;;;;;5103135;28;19927;-70
2022/11/30 12:21:12;;;;;;;;;;;4.50;99.90;;;;;;5103992;28;19920;-69
2022/11/30 12:23:47;;;;;;;;;;;4.50;99.90;;;;;;5104004;28;19962;-69
2022/11/30 12:26:19;;;;;;;;;;;4.50;99.90;;;;;;5103823;28;20452;-69
2022/11/30 12:28:53;;;;;;;;;;;4.50;99.90;;;;;;5104006;28;20321;-69
2022/11/30 12:31:23;;;;;;;;;;;4.50;99.90;;;;;;5103709;28;20231;-69
2022/11/30 12:33:58;;;;;;;;;;;4.50;99.90;;;;;;5107043;28;19959;-70
2022/11/30 12:36:30;;;;;;;;;;;4.50;99.90;;;;;;5107557;28;20183;-70
2022/11/30 12:39:01;;;;;;;;;;;4.40;99.90;;;;;;5107450;28;20205;-70
2022/11/30 12:41:30;;;;;;;;;;;4.40;99.90;;;;;;5107565;28;20156;-69
2022/11/30 12:44:03;;;;;;;;;;;4.40;99.90;;;;;;5107948;28;19983;-70
2022/11/30 12:46:35;;;;;;;;;;;4.30;99.90;;;;;;5107728;28;19920;-69
2022/11/30 12:49:22;;;;;;;;;;;4.30;99.90;;;;;;5107875;28;19923;-70
2022/11/30 12:51:53;;;;;;;;;;;4.20;99.90;;;;;;5107951;28;19988;-69
2022/11/30 12:54:23;;;;;;;;;;;4.10;99.90;;;;;;5107704;28;19951;-69
2022/11/30 12:56:54;;;;;;;;;;;4.00;99.90;;;;;;5107432;28;19956;-69
2022/11/30 12:59:23;;;;;;;;;;;4.00;99.90;;;;;;5107847;28;20162;-72
2022/11/30 13:02:02;;;;;;;;;;;3.90;99.90;;;;;;5107646;28;19923;-69
2022/11/30 13:04:33;;;;;;;;;;;3.90;99.90;;;;;;5107425;28;20115;-69
2022/11/30 13:07:01;;;;;;;;;;;3.80;99.90;;;;;;5107037;28;19955;-70
2022/11/30 13:09:30;;;;;;;;;;;3.90;99.90;;;;;;5107043;28;19979;-70
2022/11/30 13:11:59;;;;;;;;;;;4.00;99.90;;;;;;5107406;28;19920;-70
2022/11/30 13:14:27;;;;;;;;;;;3.90;99.90;;;;;;5106905;28;19976;-70
2022/11/30 13:16:58;;;;;;;;;;;3.80;99.90;;;;;;5106881;28;20239;-69
2022/11/30 13:19:32;;;;;;;;;;;3.90;99.90;;;;;;5107211;28;19955;-69
2022/11/30 13:22:02;;;;;;;;;;;3.80;99.90;;;;;;5107224;28;19952;-69
2022/11/30 13:24:32;;;;;;;;;;;3.80;99.90;;;;;;5106998;28;19983;-69
2022/11/30 13:27:01;;;;;;;;;;;3.80;99.90;;;;;;5106553;28;19944;-69
2022/11/30 13:29:43;;;;;;;;;;;3.80;99.90;;;;;;5106994;28;19963;-69
2022/11/30 13:32:11;;;;;;;;;;;3.80;99.90;;;;;;5106110;28;19942;-70
2022/11/30 13:34:39;;;;;;;;;;;3.80;99.90;;;;;;5106222;28;19955;-69
2022/11/30 13:37:06;;;;;;;;;;;3.80;99.90;;;;;;5106371;28;19955;-69
2022/11/30 13:39:44;;;;;;;;;;;3.80;99.90;;;;;;5106206;28;19986;-69
2022/11/30 13:42:34;;;;;;;;;;;3.70;99.90;;;;;;5106692;28;19920;-70
2022/11/30 13:45:16;;;;;;;;;;;3.70;99.90;;;;;;5106006;28;20085;-70
2022/11/30 13:47:44;;;;;;;;;;;3.70;99.90;;;;;;5106620;28;19987;-70
2022/11/30 13:50:19;;;;;;;;;;;3.60;99.90;;;;;;5106700;28;19927;-70
2022/11/30 13:53:06;;;;;;;;;;;3.60;99.90;;;;;;5105806;28;19952;-69
2022/11/30 13:55:49;;;;;;;;;;;3.60;99.90;;;;;;5106598;28;19983;-70
2022/11/30 13:58:17;;;;;;;;;;;3.60;99.90;;;;;;5106529;28;19947;-69
2022/11/30 14:00:45;;;;;;;;;;;3.60;99.90;;;;;;5106654;28;19983;-70
2022/11/30 14:03:23;;;;;;;;;;;3.70;99.90;;;;;;5106370;28;19951;-70
2022/11/30 14:05:51;;;;;;;;;;;3.60;99.90;;;;;;5106050;28;19920;-70
2022/11/30 14:08:39;;;;;;;;;;;3.70;99.90;;;;;;5105272;28;19947;-70
2022/11/30 14:11:24;;;;;;;;;;;3.60;99.90;;;;;;5101310;28;20258;-69
2022/11/30 14:13:51;;;;;;;;;;;3.60;99.90;;;;;;5105887;28;20176;-70
2022/11/30 14:16:26;;;;;;;;;;;3.60;99.90;;;;;;5105700;28;19958;-70
2022/11/30 14:18:52;;;;;;;;;;;3.60;99.90;;;;;;5087183;28;19921;-69
2022/11/30 14:21:31;;;;;;;;;;;3.70;99.90;;;;;;5085702;28;19995;-71
2022/11/30 14:23:59;;;;;;;;;;;3.60;99.90;;;;;;5084891;28;19921;-70
2022/11/30 14:26:28;;;;;;;;;;;3.70;99.90;;;;;;5096226;28;19951;-70
2022/11/30 14:28:58;;;;;;;;;;;3.60;99.90;;;;;;5106134;28;19951;-69
2022/11/30 14:31:25;;;;;;;;;;;3.60;99.90;;;;;;5105542;28;19958;-68
2022/11/30 14:33:54;;;;;;;;;;;3.60;99.90;;;;;;5098209;28;20242;-68
2022/11/30 14:36:22;;;;;;;;;;;3.60;99.90;;;;;;5088609;28;20152;-69
2022/11/30 14:38:50;;;;;;;;;;;3.60;99.90;;;;;;5103459;28;19983;-69
2022/11/30 14:41:20;;;;;;;;;;;3.60;99.90;;;;;;5105352;28;19951;-69
2022/11/30 14:44:05;;;;;;;;;;;3.60;99.90;;;;;;5104215;28;19983;-69